Time;durP1;ratioP1;P1;durP2;ratioP2;P2;SDS_P1;SDS_P2;PMS_P1;PMS_P2;Temp;Humidity;BMP_temperature;BMP_pressure;BME280_temperature;BME280_humidity;BME280_pressure;Samples;Min_cycle;Max_cycle;Signal;HPM_P1;HPM_P2
2022/02/07 02:47:08;;;;;;;12.00;1.67;;;5.30;99.90;;;;;;5167872;23;20150;-94
2022/02/07 02:49:08;;;;;;;20.10;1.93;;;5.40;99.90;;;;;;5142702;23;20283;-94
2022/02/07 02:51:09;;;;;;;16.07;1.70;;;5.50;99.90;;;;;;5142829;23;20159;-93
2022/02/07 02:53:14;;;;;;;14.73;1.60;;;5.60;99.90;;;;;;5152931;22;20193;-93
2022/02/07 02:55:15;;;;;;;7.10;1.87;;;5.60;99.90;;;;;;5169315;23;20154;-95
2022/02/07 02:57:16;;;;;;;11.17;1.30;;;5.50;99.90;;;;;;5167814;23;20178;-94
2022/02/07 02:59:17;;;;;;;7.87;1.10;;;5.40;99.90;;;;;;5194418;22;20189;-94
2022/02/07 03:01:17;;;;;;;14.73;2.17;;;5.40;99.90;;;;;;5167904;23;20158;-94
2022/02/07 03:03:26;;;;;;;13.87;1.80;;;5.40;99.90;;;;;;5169213;22;20166;-94
2022/02/07 03:05:27;;;;;;;6.60;0.87;;;5.30;99.90;;;;;;5167821;23;20266;-93
2022/02/07 03:07:27;;;;;;;10.57;1.53;;;5.20;99.90;;;;;;5193832;22;20150;-93
2022/02/07 03:09:29;;;;;;;14.70;1.73;;;5.20;99.90;;;;;;5168537;23;20229;-94
2022/02/07 03:11:30;;;;;;;14.27;1.57;;;5.40;99.90;;;;;;5195481;22;20150;-93
2022/02/07 03:18:07;;;;;;;9.70;2.00;;;5.40;99.90;;;;;;5195402;22;20161;-95
2022/02/07 03:20:08;;;;;;;14.37;2.10;;;5.30;99.90;;;;;;5168364;22;20159;-94
2022/02/07 03:22:09;;;;;;;14.03;1.83;;;5.40;99.90;;;;;;5168776;23;20185;-94
2022/02/07 03:24:10;;;;;;;14.20;1.73;;;5.30;99.90;;;;;;5193822;22;20247;-94
2022/02/07 03:26:19;;;;;;;9.00;1.73;;;5.30;99.90;;;;;;5169965;22;20155;-94
2022/02/07 03:28:27;;;;;;;10.57;1.40;;;5.50;99.90;;;;;;5169181;22;20150;-96
2022/02/07 03:30:29;;;;;;;11.80;1.40;;;5.60;99.90;;;;;;5168908;23;20158;-94
2022/02/07 03:32:30;;;;;;;13.60;1.70;;;5.50;99.90;;;;;;5167964;22;20534;-95
2022/02/07 03:34:38;;;;;;;10.80;1.40;;;5.50;99.90;;;;;;5169356;22;20154;-94
2022/02/07 03:36:42;;;;;;;14.23;1.60;;;5.40;99.90;;;;;;5193712;22;20158;-94
2022/02/07 03:38:45;;;;;;;11.67;2.07;;;5.60;99.90;;;;;;5194940;22;20242;-95
2022/02/07 03:40:47;;;;;;;14.50;1.40;;;5.70;99.90;;;;;;5194582;22;20154;-92
2022/02/07 03:42:48;;;;;;;10.13;1.80;;;5.50;99.90;;;;;;5168787;22;20190;-93
2022/02/07 03:44:49;;;;;;;15.80;1.67;;;5.50;99.90;;;;;;5168989;23;20647;-93
2022/02/07 03:46:51;;;;;;;20.33;1.70;;;5.50;99.90;;;;;;5169362;22;20153;-93
2022/02/07 03:48:56;;;;;;;18.27;1.70;;;5.60;99.90;;;;;;5170165;22;20604;-95
2022/02/07 03:50:58;;;;;;;15.60;2.53;;;5.40;99.90;;;;;;5169210;22;20158;-95
2022/02/07 03:52:59;;;;;;;16.33;1.50;;;5.50;99.90;;;;;;5169648;22;20261;-94
2022/02/07 03:55:05;;;;;;;22.60;2.00;;;5.50;99.90;;;;;;5169948;22;20154;-93
2022/02/07 03:57:06;;;;;;;17.93;1.90;;;5.40;99.90;;;;;;5194717;22;20154;-94
2022/02/07 03:59:10;;;;;;;11.70;1.60;;;5.40;99.90;;;;;;5171874;22;20164;-93
2022/02/07 04:01:11;;;;;;;15.53;1.83;;;5.30;99.90;;;;;;5168915;23;20143;-94
2022/02/07 04:03:21;;;;;;;11.20;1.67;;;5.10;99.90;;;;;;5193995;22;20170;-94
2022/02/07 04:05:41;;;;;;;13.30;1.93;;;5.00;99.90;;;;;;5169349;22;20265;-93
2022/02/07 04:07:44;;;;;;;14.13;1.40;;;4.90;99.90;;;;;;5194077;22;20227;-93
2022/02/07 04:09:50;;;;;;;15.17;1.60;;;5.00;99.90;;;;;;5169103;23;20150;-93
2022/02/07 04:11:58;;;;;;;10.47;1.40;;;5.10;99.90;;;;;;5194373;22;20147;-94
2022/02/07 04:14:00;;;;;;;12.10;1.40;;;5.00;99.90;;;;;;5168961;22;20198;-93
2022/02/07 04:16:03;;;;;;;13.17;1.77;;;4.90;99.90;;;;;;5168900;22;20522;-93
2022/02/07 04:18:09;;;;;;;12.73;1.67;;;4.90;99.90;;;;;;5194231;22;20237;-93
2022/02/07 04:20:10;;;;;;;16.97;1.53;;;4.90;99.90;;;;;;5194295;22;20143;-94
2022/02/07 04:22:16;;;;;;;13.97;1.77;;;5.00;99.90;;;;;;5172165;22;20146;-94
2022/02/07 04:24:35;;;;;;;12.97;1.90;;;5.10;99.90;;;;;;5195446;22;20197;-94
2022/02/07 04:26:40;;;;;;;11.53;1.47;;;5.30;99.90;;;;;;5170022;22;20633;-93
2022/02/07 04:28:41;;;;;;;18.07;2.63;;;5.20;99.90;;;;;;5197516;22;20146;-93
2022/02/07 04:30:42;;;;;;;14.03;1.77;;;5.10;99.90;;;;;;5193906;22;20162;-94
2022/02/07 04:32:44;;;;;;;13.60;1.53;;;5.20;99.90;;;;;;5168748;22;20191;-93
2022/02/07 04:34:46;;;;;;;12.13;1.50;;;5.40;99.90;;;;;;5169066;22;20193;-92
2022/02/07 04:36:53;;;;;;;16.20;1.90;;;5.40;99.90;;;;;;5194599;22;20158;-93
2022/02/07 04:38:54;;;;;;;14.50;1.50;;;5.40;99.90;;;;;;5169014;22;20202;-93
2022/02/07 04:40:56;;;;;;;10.60;1.57;;;5.40;99.90;;;;;;5193980;22;20154;-94
2022/02/07 04:42:58;;;;;;;23.47;2.17;;;5.40;99.90;;;;;;5169471;22;20179;-95
2022/02/07 04:54:10;;;;;;;12.70;1.80;;;5.40;99.90;;;;;;5193915;22;20194;-94
2022/02/07 04:56:19;;;;;;;13.20;2.20;;;5.50;99.90;;;;;;5194513;22;20150;-94
2022/02/07 04:58:42;;;;;;;11.93;1.57;;;5.40;99.90;;;;;;5194615;22;20158;-93
2022/02/07 05:03:21;;;;;;;13.70;1.73;;;5.40;99.90;;;;;;5207133;22;20173;-95
2022/02/07 05:14:26;;;;;;;13.93;1.73;;;5.80;99.90;;;;;;5193597;22;20173;-94
2022/02/07 05:16:29;;;;;;;14.63;2.00;;;5.90;99.90;;;;;;5168203;23;20147;-94
2022/02/07 05:18:40;;;;;;;16.47;2.30;;;6.00;99.90;;;;;;5194124;22;20200;-93
2022/02/07 05:21:04;;;;;;;15.17;1.83;;;6.10;99.90;;;;;;5177887;22;20146;-95
2022/02/07 05:23:22;;;;;;;16.60;2.10;;;6.00;99.90;;;;;;5171753;22;20197;-94
2022/02/07 05:25:49;;;;;;;14.47;1.60;;;5.80;99.90;;;;;;5189588;22;20158;-94
2022/02/07 05:28:06;;;;;;;18.27;2.70;;;5.60;99.90;;;;;;5171439;22;20143;-96
2022/02/07 05:30:25;;;;;;;10.37;2.10;;;5.90;99.90;;;;;;5195742;22;20162;-93
2022/02/07 05:32:40;;;;;;;20.93;2.50;;;5.70;99.90;;;;;;5172981;22;20501;-93
2022/02/07 05:35:12;;;;;;;22.73;1.93;;;5.80;99.90;;;;;;5193625;22;20157;-95
2022/02/07 05:37:34;;;;;;;19.20;1.97;;;5.80;99.90;;;;;;5173167;22;20158;-94
2022/02/07 05:39:57;;;;;;;12.93;1.50;;;5.90;99.90;;;;;;5173618;22;20155;-95
2022/02/07 05:42:09;;;;;;;14.77;1.30;;;5.90;99.90;;;;;;5195382;22;20481;-95
2022/02/07 05:44:23;;;;;;;23.43;2.17;;;5.90;99.90;;;;;;5172582;22;20182;-93
2022/02/07 05:46:50;;;;;;;17.23;2.07;;;5.80;99.90;;;;;;5173022;22;20154;-92
2022/02/07 05:49:11;;;;;;;14.33;2.10;;;5.80;99.90;;;;;;5172289;22;20242;-93
2022/02/07 05:51:30;;;;;;;15.40;2.97;;;5.90;99.90;;;;;;5193458;22;20157;-93
2022/02/07 05:53:57;;;;;;;14.00;3.10;;;5.80;99.90;;;;;;5174332;22;20186;-95
2022/02/07 05:56:10;;;;;;;18.63;3.17;;;5.80;99.90;;;;;;5170426;22;20154;-95
2022/02/07 05:58:24;;;;;;;14.50;2.90;;;5.70;99.90;;;;;;5193739;22;20146;-94
2022/02/07 06:00:44;;;;;;;17.57;2.50;;;5.70;99.90;;;;;;5193627;22;20157;-95
2022/02/07 06:02:49;;;;;;;16.07;2.50;;;5.70;99.90;;;;;;5168898;22;20171;-94
2022/02/07 06:05:01;;;;;;;12.90;2.30;;;5.70;99.90;;;;;;5170281;22;20151;-95
2022/02/07 06:07:02;;;;;;;17.43;2.90;;;5.80;99.90;;;;;;5193867;22;20179;-94
2022/02/07 06:09:04;;;;;;;12.03;1.87;;;5.70;99.90;;;;;;5193614;22;20146;-94
2022/02/07 06:11:07;;;;;;;15.77;2.20;;;5.60;99.90;;;;;;5169064;23;20147;-95
2022/02/07 06:13:17;;;;;;;16.07;2.00;;;5.50;99.90;;;;;;5168122;22;20197;-94
2022/02/07 06:15:19;;;;;;;14.80;3.03;;;5.50;99.90;;;;;;5168779;22;20147;-93
2022/02/07 06:17:20;;;;;;;13.57;1.83;;;5.60;99.90;;;;;;5168481;22;20158;-94
2022/02/07 06:19:21;;;;;;;17.07;1.93;;;5.50;99.90;;;;;;5167906;23;20154;-93
2022/02/07 06:21:23;;;;;;;15.63;1.90;;;5.70;99.90;;;;;;5193296;22;20157;-93
2022/02/07 06:23:28;;;;;;;11.63;1.87;;;5.80;99.90;;;;;;5168524;22;20501;-94
2022/02/07 06:25:29;;;;;;;17.87;2.13;;;5.80;99.90;;;;;;5168108;23;21357;-95
2022/02/07 06:27:30;;;;;;;16.07;2.07;;;5.80;99.90;;;;;;5193840;22;20559;-94
2022/02/07 06:29:33;;;;;;;12.30;2.10;;;5.80;99.90;;;;;;5143574;22;20198;-93
2022/02/07 06:31:34;;;;;;;12.43;2.40;;;5.60;99.90;;;;;;5167701;23;20150;-94
2022/02/07 06:33:36;;;;;;;14.83;2.20;;;5.60;99.90;;;;;;5193679;22;20197;-94
2022/02/07 06:35:40;;;;;;;14.70;2.00;;;5.60;99.90;;;;;;5168840;22;20174;-94
2022/02/07 06:37:41;;;;;;;12.60;2.00;;;5.60;99.90;;;;;;5168538;23;20151;-94
2022/02/07 06:39:43;;;;;;;19.50;2.40;;;5.40;99.90;;;;;;5168058;22;20175;-94
2022/02/07 06:41:46;;;;;;;16.97;2.67;;;5.30;99.90;;;;;;5168188;23;20162;-94
2022/02/07 06:43:47;;;;;;;12.33;2.37;;;5.20;99.90;;;;;;5193000;22;20170;-93
2022/02/07 06:45:48;;;;;;;11.43;2.10;;;5.10;99.90;;;;;;5194370;22;20635;-94
2022/02/07 06:47:49;;;;;;;15.87;2.07;;;5.20;99.90;;;;;;5193343;22;20151;-94
2022/02/07 06:49:50;;;;;;;14.57;2.63;;;5.30;99.90;;;;;;5194229;22;20185;-94
2022/02/07 06:51:51;;;;;;;12.60;2.60;;;5.40;99.90;;;;;;5168424;23;20158;-92
2022/02/07 06:53:52;;;;;;;15.23;2.47;;;5.30;99.90;;;;;;5168064;22;20517;-93
2022/02/07 06:55:57;;;;;;;14.93;2.50;;;5.30;99.90;;;;;;5168315;22;20230;-92
2022/02/07 06:57:58;;;;;;;19.57;2.17;;;5.30;99.90;;;;;;5194988;22;20149;-93
2022/02/07 07:00:03;;;;;;;26.23;7.00;;;5.30;99.90;;;;;;5169326;23;20239;-94
2022/02/07 07:02:04;;;;;;;17.43;2.23;;;5.30;99.90;;;;;;5170519;23;20155;-95
2022/02/07 07:04:05;;;;;;;12.03;2.13;;;5.50;99.90;;;;;;5168788;22;20261;-94
2022/02/07 07:06:06;;;;;;;27.40;7.50;;;5.70;99.90;;;;;;5193308;22;20229;-94
2022/02/07 07:08:08;;;;;;;13.43;2.20;;;5.70;99.90;;;;;;5168797;22;20155;-94
2022/02/07 07:10:10;;;;;;;31.07;13.30;;;5.70;99.90;;;;;;5168730;23;20720;-95
2022/02/07 07:12:12;;;;;;;20.60;4.97;;;5.80;99.90;;;;;;5169186;22;20485;-93
2022/02/07 07:14:41;;;;;;;27.47;2.60;;;5.60;99.90;;;;;;5171627;22;20699;-95
2022/02/07 07:16:55;;;;;;;19.63;2.23;;;5.60;99.90;;;;;;5195578;22;20142;-93
2022/02/07 07:19:04;;;;;;;14.10;2.10;;;5.60;99.90;;;;;;5171520;22;20151;-93
2022/02/07 07:21:07;;;;;;;21.73;4.33;;;5.60;99.90;;;;;;5169911;22;20187;-93
2022/02/07 07:23:09;;;;;;;14.00;2.30;;;5.40;99.90;;;;;;5169603;22;20554;-94
2022/02/07 07:25:16;;;;;;;9.73;1.20;;;5.40;99.90;;;;;;5196777;22;20150;-94
2022/02/07 07:27:24;;;;;;;18.87;2.70;;;5.50;99.90;;;;;;5169869;22;20613;-94
2022/02/07 07:29:30;;;;;;;21.07;1.80;;;5.40;99.90;;;;;;5195356;22;20146;-95
2022/02/07 07:31:36;;;;;;;17.40;1.93;;;5.50;99.90;;;;;;5171406;23;20609;-94
2022/02/07 07:33:39;;;;;;;13.70;2.10;;;5.50;99.90;;;;;;5196833;22;20265;-95
2022/02/07 07:35:49;;;;;;;18.27;2.30;;;5.50;99.90;;;;;;5195475;22;20158;-94
2022/02/07 07:37:50;;;;;;;16.67;2.20;;;5.70;99.90;;;;;;5195441;22;20217;-93
2022/02/07 07:39:51;;;;;;;20.30;2.77;;;5.70;99.90;;;;;;5174041;23;20153;-93
2022/02/07 07:41:55;;;;;;;10.33;2.47;;;5.60;99.90;;;;;;5199721;22;20268;-93
2022/02/07 07:44:17;;;;;;;24.50;3.30;;;5.60;99.90;;;;;;5177500;22;20273;-95
2022/02/07 07:46:40;;;;;;;19.77;2.57;;;5.60;99.90;;;;;;5184435;22;20172;-94
2022/02/07 07:49:08;;;;;;;19.13;3.13;;;5.80;99.90;;;;;;5197169;22;20200;-94
2022/02/07 07:51:34;;;;;;;18.07;2.50;;;5.80;99.90;;;;;;5177372;22;20151;-95
2022/02/07 08:03:50;;;;;;;14.40;2.33;;;5.60;99.90;;;;;;5130916;22;20508;-95
2022/02/07 08:06:19;;;;;;;17.17;2.57;;;5.80;99.90;;;;;;5169365;22;20143;-95
2022/02/07 08:08:24;;;;;;;11.67;2.00;;;6.00;99.90;;;;;;5219615;22;20192;-96
2022/02/07 08:10:49;;;;;;;11.23;2.03;;;6.00;99.90;;;;;;5169321;23;20151;-95
2022/02/07 08:12:48;;;;;;;22.03;2.33;;;6.00;99.90;;;;;;5193921;22;20185;-95
2022/02/07 08:14:50;;;;;;;24.43;2.20;;;6.20;99.90;;;;;;5169861;23;20182;-96
2022/02/07 08:16:52;;;;;;;11.80;2.43;;;6.30;99.90;;;;;;5195126;22;20150;-95
2022/02/07 08:18:55;;;;;;;12.73;2.27;;;6.40;99.90;;;;;;5195122;22;20134;-96
2022/02/07 08:20:55;;;;;;;13.23;4.03;;;6.50;99.90;;;;;;5169397;23;20589;-94
2022/02/07 08:23:00;;;;;;;14.23;2.53;;;6.70;99.90;;;;;;5171001;22;20167;-96
2022/02/07 08:25:02;;;;;;;22.23;2.90;;;7.10;99.90;;;;;;5194410;22;20154;-96
2022/02/07 08:27:04;;;;;;;23.40;4.50;;;7.60;99.90;;;;;;5169059;23;20142;-95
2022/02/07 08:29:06;;;;;;;14.93;4.27;;;7.90;99.90;;;;;;5194410;22;20155;-95
2022/02/07 08:31:07;;;;;;;18.67;3.40;;;8.00;99.90;;;;;;5195249;22;20216;-95
2022/02/07 08:33:08;;;;;;;14.67;2.83;;;7.90;99.90;;;;;;5168637;22;20556;-94
2022/02/07 08:35:09;;;;;;;10.80;2.45;;;8.30;99.90;;;;;;5194568;22;20146;-93
2022/02/07 08:37:10;;;;;;;14.95;2.67;;;8.40;99.90;;;;;;5169019;23;20506;-95
2022/02/07 08:39:11;;;;;;;10.10;1.98;;;9.20;99.90;;;;;;5194389;22;20177;-93
2022/02/07 08:41:12;;;;;;;15.85;2.75;;;9.30;99.90;;;;;;5169035;23;20205;-92
2022/02/07 08:43:13;;;;;;;18.55;3.25;;;10.10;99.90;;;;;;5168553;22;20174;-91
2022/02/07 08:45:15;;;;;;;17.23;3.30;;;10.50;99.90;;;;;;5194582;22;20252;-94
2022/02/07 08:47:15;;;;;;;14.40;3.40;;;10.70;99.90;;;;;;5195334;22;20149;-93
2022/02/07 08:49:16;;;;;;;15.20;2.80;;;10.60;99.90;;;;;;5168871;23;20177;-92
2022/02/07 08:51:17;;;;;;;18.05;3.58;;;11.20;99.90;;;;;;5169235;23;20367;-93
2022/02/07 08:53:20;;;;;;;17.55;3.47;;;11.20;99.90;;;;;;5168822;22;20633;-92
2022/02/07 08:55:31;;;;;;;11.48;2.88;;;11.30;99.90;;;;;;5168920;23;20155;-93
2022/02/07 08:57:37;;;;;;;12.80;2.58;;;10.70;99.90;;;;;;5194019;22;20507;-94
2022/02/07 09:00:12;;;;;;;15.57;2.42;;;10.80;99.90;;;;;;5169239;22;20640;-92
2022/02/07 09:02:16;;;;;;;9.23;2.13;;;10.80;99.90;;;;;;5219500;22;20552;-93
2022/02/07 09:06:53;;;;;;;14.25;2.60;;;10.80;99.90;;;;;;5193830;22;20600;-94
2022/02/07 09:09:16;;;;;;;15.15;2.45;;;10.40;99.90;;;;;;5168696;23;20210;-94
2022/02/07 09:11:21;;;;;;;14.13;2.60;;;10.50;99.90;;;;;;5168503;23;20147;-96
2022/02/07 09:13:29;;;;;;;9.27;2.08;;;10.40;99.90;;;;;;5194365;22;20190;-94
2022/02/07 09:15:34;;;;;;;13.18;1.92;;;10.10;99.90;;;;;;5169242;23;20585;-93
2022/02/07 09:17:37;;;;;;;7.68;2.03;;;10.00;99.90;;;;;;5168757;23;20147;-92
2022/02/07 09:19:38;;;;;;;10.18;2.75;;;10.00;99.90;;;;;;5168897;23;20162;-94
2022/02/07 09:21:39;;;;;;;13.52;2.00;;;10.10;99.90;;;;;;5168942;23;20147;-92
2022/02/07 09:23:41;;;;;;;11.25;2.40;;;10.00;99.90;;;;;;5168363;22;20205;-94
2022/02/07 09:25:43;;;;;;;13.93;2.38;;;10.00;99.90;;;;;;5168755;23;20154;-93
2022/02/07 09:27:44;;;;;;;13.88;2.28;;;9.80;99.90;;;;;;5194435;22;20204;-94
2022/02/07 09:29:44;;;;;;;12.32;1.98;;;9.80;99.90;;;;;;5168657;23;20177;-93
2022/02/07 09:31:45;;;;;;;10.73;1.88;;;10.00;99.90;;;;;;5194516;22;20221;-94
2022/02/07 09:33:46;;;;;;;9.80;2.00;;;10.20;99.90;;;;;;5169476;22;20186;-95
2022/02/07 09:35:49;;;;;;;12.82;1.98;;;10.00;99.90;;;;;;5193910;22;20150;-95
2022/02/07 09:37:52;;;;;;;12.38;2.05;;;9.50;99.90;;;;;;5168640;23;20560;-94
2022/02/07 09:39:53;;;;;;;10.05;1.83;;;9.70;99.90;;;;;;5193584;22;20207;-93
2022/02/07 09:41:55;;;;;;;15.70;2.13;;;9.90;99.90;;;;;;5194063;22;20588;-93
2022/02/07 09:43:58;;;;;;;14.38;2.15;;;9.60;99.90;;;;;;5168392;23;20203;-94
2022/02/07 09:46:09;;;;;;;13.15;2.33;;;9.90;99.90;;;;;;5170127;23;20155;-93
2022/02/07 09:48:10;;;;;;;14.95;1.95;;;10.00;99.90;;;;;;5193740;22;20154;-94
2022/02/07 09:50:12;;;;;;;10.75;1.90;;;9.50;99.90;;;;;;5168798;23;20151;-96
2022/02/07 09:52:13;;;;;;;9.32;1.45;;;8.90;99.90;;;;;;5168504;23;20205;-94
2022/02/07 09:54:16;;;;;;;15.85;2.28;;;8.80;99.90;;;;;;5168487;22;20198;-93
2022/02/07 09:56:17;;;;;;;16.77;1.63;;;8.30;99.90;;;;;;5168645;23;20181;-94
2022/02/07 09:58:18;;;;;;;14.27;1.43;;;8.40;99.90;;;;;;5193939;22;20158;-95
2022/02/07 10:00:22;;;;;;;11.30;1.90;;;8.40;99.90;;;;;;5168289;23;20233;-96
2022/02/07 10:02:33;;;;;;;9.77;1.60;;;7.80;99.90;;;;;;5194269;22;20591;-93
2022/02/07 10:04:38;;;;;;;22.90;2.03;;;7.60;99.90;;;;;;5193723;22;20149;-95
2022/02/07 10:08:58;;;;;;;18.37;2.03;;;7.60;99.90;;;;;;5193647;22;20475;-93
2022/02/07 10:11:36;;;;;;;12.77;1.97;;;7.70;99.90;;;;;;5167971;23;20151;-93
2022/02/07 10:13:41;;;;;;;12.53;2.00;;;7.60;99.90;;;;;;5192097;22;20288;-94
2022/02/07 10:15:56;;;;;;;19.07;2.80;;;7.70;99.90;;;;;;5193025;22;20154;-94
2022/02/07 10:18:34;;;;;;;10.73;2.37;;;8.00;99.90;;;;;;5167773;23;20201;-93
2022/02/07 10:35:10;;;;;;;13.93;2.63;;;7.70;99.90;;;;;;5193407;22;20197;-94
2022/02/07 10:37:41;;;;;;;12.63;1.27;;;7.70;99.90;;;;;;5177410;22;20185;-95
2022/02/07 10:39:37;;;;;;;8.30;1.67;;;7.60;99.90;;;;;;5193519;22;20188;-95
2022/02/07 10:44:05;;;;;;;12.47;2.07;;;7.70;99.90;;;;;;5219631;22;20170;-95
2022/02/07 10:46:14;;;;;;;10.80;2.07;;;7.80;99.90;;;;;;5169368;22;20224;-94
2022/02/07 10:48:44;;;;;;;8.57;1.40;;;7.60;99.90;;;;;;5170308;23;20642;-94
2022/02/07 10:51:06;;;;;;;10.30;1.90;;;7.40;99.90;;;;;;5171431;22;20452;-95
2022/02/07 10:53:09;;;;;;;8.30;1.73;;;7.70;99.90;;;;;;5170751;22;20187;-95
2022/02/07 10:55:38;;;;;;;13.07;1.90;;;7.90;99.90;;;;;;5196065;22;20460;-93
2022/02/07 10:57:40;;;;;;;14.90;2.30;;;7.90;99.90;;;;;;5170220;23;20158;-95
2022/02/07 10:59:41;;;;;;;11.00;2.17;;;8.20;99.90;;;;;;5170684;23;20171;-96
2022/02/07 11:02:36;;;;;;;8.40;1.40;;;8.10;99.90;;;;;;5197369;22;20146;-95
2022/02/07 11:04:32;;;;;;;19.20;1.83;;;8.00;99.90;;;;;;5195294;22;20174;-95
2022/02/07 11:06:35;;;;;;;19.03;2.00;;;8.00;99.90;;;;;;5170201;23;20143;-95
2022/02/07 11:08:47;;;;;;;9.43;1.70;;;8.00;99.90;;;;;;5195843;22;20193;-95
2022/02/07 11:15:30;;;;;;;14.67;1.93;;;8.10;99.90;;;;;;5195831;22;20154;-93
2022/02/07 11:20:07;;;;;;;21.47;2.17;;;8.40;99.90;;;;;;5196163;22;20182;-95
2022/02/07 11:24:47;;;;;;;14.70;1.50;;;8.40;99.90;;;;;;5194697;22;20600;-94
2022/02/07 11:26:50;;;;;;;8.90;1.90;;;8.40;99.90;;;;;;5194799;22;20261;-96
2022/02/07 11:28:51;;;;;;;12.55;2.13;;;8.70;99.90;;;;;;5169431;23;20150;-94
2022/02/07 11:30:58;;;;;;;23.73;2.58;;;8.80;99.90;;;;;;5195591;22;20581;-94
2022/02/07 11:33:00;;;;;;;10.10;1.80;;;9.00;99.90;;;;;;5170409;22;20193;-94
2022/02/07 11:35:10;;;;;;;12.53;2.20;;;9.20;99.90;;;;;;5178097;23;20181;-94
2022/02/07 11:37:21;;;;;;;17.70;1.90;;;8.80;99.90;;;;;;5177787;23;20151;-94
2022/02/07 11:39:22;;;;;;;12.88;1.63;;;9.00;99.90;;;;;;5173925;23;20213;-96
2022/02/07 11:41:23;;;;;;;11.07;1.90;;;9.10;99.90;;;;;;5174028;23;20142;-96
2022/02/07 11:43:31;;;;;;;14.13;2.20;;;9.00;99.90;;;;;;5196022;22;20279;-94
2022/02/07 11:45:55;;;;;;;9.30;1.92;;;9.00;99.90;;;;;;5172432;23;20224;-94
2022/02/07 11:48:06;;;;;;;18.97;2.37;;;8.90;99.90;;;;;;5172329;22;20150;-93
2022/02/07 11:50:08;;;;;;;14.20;1.90;;;9.10;99.90;;;;;;5170169;23;20154;-95
2022/02/07 11:52:30;;;;;;;15.15;2.17;;;9.30;99.90;;;;;;5221870;22;20145;-93
2022/02/07 11:54:33;;;;;;;12.07;1.80;;;9.40;99.90;;;;;;5169671;23;20597;-94
2022/02/07 11:56:45;;;;;;;19.17;2.13;;;9.30;99.90;;;;;;5171166;23;20181;-96
2022/02/07 11:58:55;;;;;;;17.20;2.00;;;8.90;99.90;;;;;;5169186;23;20151;-93
2022/02/07 12:00:58;;;;;;;8.63;1.30;;;8.90;99.90;;;;;;5169347;23;20212;-95
2022/02/07 12:03:05;;;;;;;20.95;1.85;;;9.00;99.90;;;;;;5169203;22;20185;-94
2022/02/07 12:05:10;;;;;;;7.28;1.67;;;9.00;99.90;;;;;;5169912;23;20237;-95
2022/02/07 12:07:10;;;;;;;7.63;1.42;;;9.00;99.90;;;;;;5169773;23;20157;-96
2022/02/07 12:09:23;;;;;;;8.25;1.45;;;8.90;99.90;;;;;;5195692;22;20154;-95
2022/02/07 12:11:45;;;;;;;9.00;1.45;;;8.90;99.90;;;;;;5194870;22;20188;-95
2022/02/07 12:13:45;;;;;;;17.88;1.80;;;9.20;99.90;;;;;;5169634;22;20214;-95
2022/02/07 12:15:54;;;;;;;13.68;1.73;;;9.40;99.90;;;;;;5195072;22;20257;-95
2022/02/07 12:17:57;;;;;;;9.85;1.75;;;9.40;99.90;;;;;;5195446;22;20193;-95
2022/02/07 12:20:15;;;;;;;15.40;2.45;;;9.60;99.90;;;;;;5196043;22;20138;-96
2022/02/07 12:22:18;;;;;;;10.40;1.48;;;9.40;99.90;;;;;;5196517;22;20154;-95
2022/02/07 12:24:19;;;;;;;12.38;2.22;;;9.40;99.90;;;;;;5172898;22;20174;-96
2022/02/07 12:26:20;;;;;;;7.82;1.17;;;9.20;99.90;;;;;;5198989;22;20608;-95
2022/02/07 12:31:02;;;;;;;10.83;1.60;;;9.50;99.90;;;;;;5196290;22;20146;-94
2022/02/07 12:33:05;;;;;;;11.37;1.87;;;9.50;99.90;;;;;;5173855;22;20249;-95
2022/02/07 12:35:08;;;;;;;8.00;1.40;;;9.30;99.90;;;;;;5180462;22;20157;-95
2022/02/07 12:37:09;;;;;;;8.03;1.23;;;9.40;99.90;;;;;;5178268;22;20522;-93
2022/02/07 12:39:15;;;;;;;4.85;1.30;;;9.60;99.90;;;;;;5193592;22;20157;-95
2022/02/07 12:41:17;;;;;;;8.88;1.30;;;9.60;99.90;;;;;;5193633;22;20200;-95
2022/02/07 12:43:21;;;;;;;9.37;1.50;;;9.40;99.90;;;;;;5168453;22;20167;-94
2022/02/07 12:45:26;;;;;;;9.10;1.77;;;9.20;99.90;;;;;;5167889;23;20533;-94
2022/02/07 12:47:27;;;;;;;13.32;1.92;;;9.20;99.90;;;;;;5172485;23;20151;-92
2022/02/07 12:49:36;;;;;;;12.45;1.33;;;9.10;99.90;;;;;;5205288;22;20206;-94
2022/02/07 12:51:43;;;;;;;20.42;2.03;;;9.20;99.90;;;;;;5211891;22;20176;-94
2022/02/07 12:53:46;;;;;;;7.40;2.03;;;9.40;99.90;;;;;;5186562;22;20229;-94
2022/02/07 12:55:55;;;;;;;14.35;1.98;;;9.50;99.90;;;;;;5169169;22;20192;-94
2022/02/07 12:57:58;;;;;;;10.45;1.50;;;9.50;99.90;;;;;;5167605;23;20220;-93
2022/02/07 12:59:59;;;;;;;13.50;1.40;;;9.70;99.90;;;;;;5168054;23;20598;-94
2022/02/07 13:02:00;;;;;;;13.07;1.77;;;9.80;99.90;;;;;;5193069;22;20191;-93
2022/02/07 13:04:04;;;;;;;11.90;1.63;;;9.90;99.90;;;;;;5192826;22;20516;-94
2022/02/07 13:06:08;;;;;;;12.27;1.77;;;10.00;99.90;;;;;;5168059;23;20151;-95
2022/02/07 13:08:14;;;;;;;13.40;1.58;;;10.00;99.90;;;;;;5167893;23;20158;-94
2022/02/07 13:10:21;;;;;;;16.63;2.17;;;9.90;99.90;;;;;;5167795;23;20159;-94
2022/02/07 13:12:38;;;;;;;15.13;1.92;;;9.80;99.90;;;;;;5192878;22;20216;-94
2022/02/07 13:14:46;;;;;;;12.45;1.20;;;9.80;99.90;;;;;;5167640;23;20260;-95
2022/02/07 13:16:47;;;;;;;7.93;1.70;;;9.70;99.90;;;;;;5167803;23;20265;-96
2022/02/07 13:18:49;;;;;;;18.33;1.55;;;9.70;99.90;;;;;;5193301;22;20146;-94
2022/02/07 13:20:51;;;;;;;12.13;2.22;;;9.70;99.90;;;;;;5167778;23;20604;-94
2022/02/07 13:23:16;;;;;;;14.85;2.13;;;9.60;99.90;;;;;;5167653;22;20546;-94
2022/02/07 13:25:16;;;;;;;9.50;1.08;;;9.50;99.90;;;;;;5168020;23;20197;-96
2022/02/07 13:27:19;;;;;;;10.97;1.63;;;9.40;99.90;;;;;;5167640;23;20179;-94
2022/02/07 13:29:22;;;;;;;9.10;1.53;;;9.40;99.90;;;;;;5168105;23;20155;-96
2022/02/07 13:31:31;;;;;;;11.88;1.90;;;9.30;99.90;;;;;;5168182;23;20305;-95
2022/02/07 13:33:46;;;;;;;10.63;1.50;;;9.40;99.90;;;;;;5168055;23;20263;-95
2022/02/07 13:35:55;;;;;;;9.20;1.63;;;9.60;99.90;;;;;;5193889;22;20146;-95
2022/02/07 13:38:06;;;;;;;9.23;1.38;;;9.60;99.90;;;;;;5194448;22;20284;-96
2022/02/07 13:40:12;;;;;;;8.73;1.27;;;9.70;99.90;;;;;;5168539;23;20566;-95
2022/02/07 13:42:15;;;;;;;9.90;1.40;;;9.70;99.90;;;;;;5168628;23;20143;-95
2022/02/07 13:44:15;;;;;;;8.38;1.27;;;9.70;99.90;;;;;;5167642;22;20176;-95
2022/02/07 13:46:18;;;;;;;8.02;1.30;;;9.80;99.90;;;;;;5194868;22;20170;-96
2022/02/07 13:48:22;;;;;;;11.57;1.45;;;9.70;99.90;;;;;;5167996;23;20162;-94
2022/02/07 13:50:30;;;;;;;4.90;1.10;;;9.80;99.90;;;;;;5169039;23;20612;-96
2022/02/07 13:52:36;;;;;;;8.82;1.33;;;9.80;99.90;;;;;;5168371;22;20608;-95
2022/02/07 13:54:37;;;;;;;9.68;1.33;;;9.70;99.90;;;;;;5168611;23;20884;-94
2022/02/07 13:56:40;;;;;;;8.25;1.63;;;9.60;99.90;;;;;;5193742;22;20485;-95
2022/02/07 13:58:42;;;;;;;8.40;1.73;;;9.60;99.90;;;;;;5193758;22;20189;-94
2022/02/07 14:00:49;;;;;;;6.07;1.08;;;9.70;99.90;;;;;;5168616;23;20726;-95
2022/02/07 14:03:23;;;;;;;13.18;1.83;;;9.80;99.90;;;;;;5168261;22;20525;-95
2022/02/07 14:05:35;;;;;;;9.02;1.58;;;9.70;99.90;;;;;;5168446;23;20176;-94
2022/02/07 14:07:53;;;;;;;9.27;1.35;;;9.60;99.90;;;;;;5168192;23;20225;-95
2022/02/07 14:09:54;;;;;;;11.15;1.73;;;9.60;99.90;;;;;;5192374;22;20629;-96
2022/02/07 14:11:58;;;;;;;11.55;1.27;;;9.60;99.90;;;;;;5168731;23;20144;-94
2022/02/07 14:14:05;;;;;;;7.32;1.33;;;9.60;99.90;;;;;;5193293;22;20201;-95
2022/02/07 14:16:08;;;;;;;9.13;1.30;;;9.40;99.90;;;;;;5168181;23;20255;-95
2022/02/07 14:18:09;;;;;;;10.65;1.00;;;9.60;99.90;;;;;;5167883;23;20158;-94
2022/02/07 14:20:13;;;;;;;10.57;1.30;;;9.60;99.90;;;;;;5193489;22;20153;-96
2022/02/07 14:22:14;;;;;;;12.55;1.80;;;9.70;99.90;;;;;;5193500;22;20224;-95
2022/02/07 14:24:15;;;;;;;15.18;2.00;;;9.80;99.90;;;;;;5193522;22;20639;-95
2022/02/07 14:26:18;;;;;;;11.20;1.75;;;9.80;99.90;;;;;;5168008;23;20210;-95
2022/02/07 14:28:19;;;;;;;10.73;1.75;;;9.80;99.90;;;;;;5169078;23;20147;-96
2022/02/07 14:30:22;;;;;;;7.30;1.80;;;9.80;99.90;;;;;;5192962;22;20208;-94
2022/02/07 14:32:23;;;;;;;9.15;1.50;;;10.00;99.90;;;;;;5168249;23;20154;-94
2022/02/07 14:34:24;;;;;;;14.75;1.60;;;9.80;99.90;;;;;;5167611;23;20198;-93
2022/02/07 14:36:27;;;;;;;8.30;1.60;;;9.90;99.90;;;;;;5193538;22;20147;-94
2022/02/07 14:38:28;;;;;;;8.48;1.67;;;9.80;99.90;;;;;;5167950;23;20165;-95
2022/02/07 14:40:30;;;;;;;11.55;1.88;;;9.80;99.90;;;;;;5193076;22;20142;-95
2022/02/07 14:42:31;;;;;;;8.70;1.92;;;9.60;99.90;;;;;;5167876;22;20193;-95
2022/02/07 14:44:38;;;;;;;14.70;2.25;;;9.60;99.90;;;;;;5168450;23;20174;-95
2022/02/07 14:46:50;;;;;;;9.10;1.52;;;9.60;99.90;;;;;;5193280;22;20470;-95
2022/02/07 14:48:51;;;;;;;15.32;2.38;;;9.60;99.90;;;;;;5167648;23;20234;-95
2022/02/07 14:50:53;;;;;;;11.52;1.90;;;9.70;99.90;;;;;;5193125;22;20233;-94
2022/02/07 14:52:55;;;;;;;7.80;1.67;;;9.60;99.90;;;;;;5192656;22;20204;-95
2022/02/07 14:54:56;;;;;;;9.80;1.75;;;9.70;99.90;;;;;;5167976;23;20833;-94